CheckWX is a tool to help pilots better visualize weather data.  It is not intended as a substitute for an official pre-flight weather briefing.

00:34:20 UTC

EIME TAF
Casement Air Base Airport
Baldonnel, Ireland
TAF COR EIME 252347Z 2600/2609 20005KT 9999 FEW025 SCT040 BECMG 2604/2606 25005KT PROB40 TEMPO 2603/2608 4000 BR PROB30 TEMPO 2604/2608 2000 BR

Mar-26@
00:00 UTC

Mar-26 @ 00:00 UTC

Mar-26@
04:00 UTC

Mar-26 @ 04:00 UTC

TAF COR EIME 252347Z 2600/2609 20005KT 9999 FEW025 SCT040
Wind
  • 200° at 5 KTS
Cloud Levels
  • Few at 2,500' AGL
  • Scattered at 4,000' AGL

Mar-26@
03:00 UTC

Mar-26 @ 03:00 UTC

Mar-26@
08:00 UTC

Mar-26 @ 08:00 UTC

PROB40 TEMPO 2603/2608 4000 BR

Temporary - 40% Likelihood

Temporary - 40% Likelihood during this time.

Conditions
Mist

Mar-26@
04:00 UTC

Mar-26 @ 04:00 UTC

Mar-26@
08:00 UTC

Mar-26 @ 08:00 UTC

PROB30 TEMPO 2604/2608 2000 BR

Temporary - 30% Likelihood

Temporary - 30% Likelihood during this time.

Conditions
Mist

Mar-26@
04:00 UTC

Mar-26 @ 04:00 UTC

Mar-26@
09:00 UTC

Mar-26 @ 09:00 UTC

BECMG 2604/2606 25005KT

Becoming

Becoming Conditions expected by Tue, Mar 26, 2019 @ 06:00 UTC

Wind
  • 250° at 5 KTS
Cloud Levels
  • Few at 2,500' AGL
  • Scattered at 4,000' AGL